Accueil
METAR-TAF:

METAR-TAF

Aéroports :

Aéroport international de Bagdad

Bagdad, Irak

latitude: 33-15-45N, longitude: 44-14-04E, altitude: 35 m

Observation

Le bulletin a été fait il y a 6 minutes, à 13:00 UTC
Vent 14 kt de ouest
Température 24°C
Humidité 22%
Pression 1019 hPa
Visibilité 10 km ou plus
Nuages fragmentés à une hauteur de 3000 ft

METAR: ORBI 231300Z 28014KT 9999 BKN030 24/01 Q1019 NOSIG

Heure: 16:06 (13:06 UTC)

Prévision

Le bulletin a été fait il y a 3 heures et 6 minutes, à 10:00 UTC
Prévision valable du 23 à 12 UTC au 24 à 12 UTC
Vent 12 kt de ouest
Visibilité: 8000 m
Nuages épars à une hauteur de 3000 ft

TAF: ORBI 231000Z 2312/2412 28012KT 8000 SCT030

Observations et prévisions météorologiques de plus de 4000 aéroports (messages METAR et TAF).

Les stations disponibles sont représentées par des disques jaunes et rouges sur la carte.

Passer la souris dessus pour voir le nom de la station.

Cliquer dessus pour voir les observations et prévisions météorologiques.

Pour changer de carte: cliquez sur les boutons verts avec une croix noire pour zoomer, sur le bouton vert avec un tiret pour effectuer un zoom arrière, ou sur les flèches vertes pour les cartes adjacentes.


METAR-TAF: